Cscc Shanghai — C6XA5 — position and weather

sailwx.info

Track history (hours):
 
Tides and Currents Weather Stations Pressure Air Temp Water Temp Dewpoint Dewpoint Depression Visibility Wind Speed Wind Dir Waves Ship Positions

Cscc Shanghai

Last reported at 2017-Nov-19 04:47 UTC. Time now 2017-Nov-21 10:23 UTC.
Position N 38°28' E 015°54'.

Length 176 m; draft 8.8 m.

Type: Cargo ship. MMSI: 311003600.

Date/timePositionNaut miles runAvg speedWind from/ knotsBaromVisibWave heightAir tempDewpointWater temp
2017-Nov-19 04:47N 38°28' E 015°54'1 5.0
2017-Nov-19 04:30N 38°27' E 015°53'2 2.6
2017-Nov-19 03:56N 38°26' E 015°51'3 7.4
2017-Nov-19 03:30N 38°24' E 015°49'816.1
2017-Nov-19 03:01N 38°17' E 015°43'816.0
2017-Nov-19 02:30N 38°11' E 015°37'4 7.4
2017-Nov-19 02:00N 38°07' E 015°36'5 9.5
2017-Nov-19 01:31N 38°02' E 015°36'815.0
2017-Nov-19 01:00N 37°55' E 015°39'917.0
2017-Nov-19 00:30N 37°51' E 015°48'917.2
2017-Nov-19 00:00N 37°49' E 015°58'62713.7
2017-Nov-17 02:07N 40°26' E 029°00'211.8
2017-Nov-17 01:58N 40°26' E 029°03'15 0.6
2017-Nov-15 23:22N 40°41' E 028°59'513.6
2017-Nov-15 22:59N 40°42' E 029°06'714.9
2017-Nov-15 22:30N 40°43' E 029°15'  
2017-Nov-13 02:01N 37°52' E 015°36'815.4
2017-Nov-13 01:30N 37°60' E 015°33'815.3
2017-Nov-13 01:00N 38°07' E 015°34'815.5
2017-Nov-13 00:30N 38°15' E 015°37'714.6
2017-Nov-13 00:00N 38°20' E 015°43'815.2
2017-Nov-12 23:30N 38°26' E 015°50'4 7.7
2017-Nov-12 23:00N 38°27' E 015°54'1 2.3
2017-Nov-12 22:30N 38°28' E 015°55'0 0.0
2017-Nov-12 21:57N 38°28' E 015°55'0 0.0
2017-Nov-12 21:24N 38°28' E 015°55'0 0.0
2017-Nov-12 20:57N 38°28' E 015°55'0 0.0
2017-Nov-12 20:27N 38°28' E 015°55'0 0.0
2017-Nov-12 19:51N 38°28' E 015°55'0 0.0
2017-Nov-12 19:30N 38°28' E 015°55'0 0.0
2017-Nov-12 18:57N 38°28' E 015°55'0 0.0
2017-Nov-12 18:30N 38°28' E 015°55'0 0.0
2017-Nov-12 17:57N 38°28' E 015°55'0 0.0
2017-Nov-12 17:30N 38°28' E 015°55'0 0.0
2017-Nov-12 17:00N 38°28' E 015°55'0 0.0
2017-Nov-12 16:30N 38°28' E 015°55'0 0.0
2017-Nov-12 16:00N 38°28' E 015°55'0 0.0
2017-Nov-12 15:16N 38°28' E 015°55'0 1.2
2017-Nov-12 14:59N 38°28' E 015°55'2 4.5
2017-Nov-12 14:31N 38°27' E 015°53'4 8.7
2017-Nov-12 14:01N 38°29' E 015°48'713.6
2017-Nov-12 13:30N 38°34' E 015°42'815.1
2017-Nov-12 13:00N 38°41' E 015°37'815.5
2017-Nov-12 12:30N 38°48' E 015°33'815.4
2017-Nov-12 12:00N 38°55' E 015°29'815.3
2017-Nov-12 11:30N 39°02' E 015°26'815.4
2017-Nov-12 10:59N 39°09' E 015°21'1815.4
2017-Nov-12 09:48N 39°26' E 015°12'2315.3
2017-Nov-12 08:18N 39°47' E 014°59'52 3.2
2017-Nov-11 16:11N 40°31' E 014°23'1516.8
2017-Nov-11 15:18N 40°32' E 014°04'517.5
2017-Nov-11 14:59N 40°34' E 013°57'18515.8
2017-Nov-11 03:16N 42°21' E 010°36'4313.9
2017-Nov-11 00:12N 42°56' E 010°04'315.7
2017-Nov-11 00:00N 42°59' E 010°05'815.5
2017-Nov-10 23:30N 43°07' E 010°06'815.1
2017-Nov-10 22:59N 43°15' E 010°08'715.0
2017-Nov-10 22:30N 43°22' E 010°10'815.3
2017-Nov-10 22:00N 43°29' E 010°12'510.7
2017-Nov-10 21:30N 43°33' E 010°17'2 4.1
2017-Nov-10 20:58N 43°35' E 010°19'0 0.0
2017-Nov-10 20:28N 43°35' E 010°19'0 0.0
2017-Nov-10 19:49N 43°35' E 010°19'0 0.0
2017-Nov-10 19:25N 43°35' E 010°19'0 0.0
2017-Nov-10 18:55N 43°35' E 010°19'0 0.0
2017-Nov-10 18:22N 43°35' E 010°19'0 0.0
2017-Nov-10 17:58N 43°35' E 010°19'0 0.0
2017-Nov-10 17:25N 43°35' E 010°19'0 0.0
2017-Nov-10 16:58N 43°35' E 010°19'0 0.0
2017-Nov-10 16:28N 43°35' E 010°19'0 0.0
2017-Nov-10 15:58N 43°35' E 010°19'0 0.0
2017-Nov-10 15:28N 43°35' E 010°19'0 0.0
2017-Nov-10 14:58N 43°35' E 010°19'0 0.0
2017-Nov-10 14:28N 43°35' E 010°19'0 0.0
2017-Nov-10 13:58N 43°35' E 010°19'0 0.0
2017-Nov-10 13:28N 43°35' E 010°19'0 0.0
2017-Nov-10 13:01N 43°35' E 010°19'1 1.8
2017-Nov-10 12:30N 43°34' E 010°18'0 0.7
2017-Nov-10 11:53N 43°34' E 010°18'0 0.0
2017-Nov-10 11:26N 43°34' E 010°18'0 0.0
2017-Nov-10 10:59N 43°34' E 010°18'0 0.0
2017-Nov-10 10:23N 43°34' E 010°18'0 0.0
2017-Nov-10 09:56N 43°34' E 010°18'0 0.0
2017-Nov-10 09:29N 43°34' E 010°18'0 0.0
2017-Nov-10 08:59N 43°34' E 010°18'0 0.0
2017-Nov-10 08:26N 43°34' E 010°18'0 0.0
2017-Nov-10 07:59N 43°34' E 010°18'0 0.0
2017-Nov-10 07:29N 43°34' E 010°18'0 0.0
2017-Nov-10 06:53N 43°34' E 010°18'0 0.0
2017-Nov-10 06:29N 43°34' E 010°18'0 0.0
2017-Nov-10 05:59N 43°34' E 010°18'0 0.0
2017-Nov-10 05:23N 43°34' E 010°18'0 0.0
2017-Nov-10 04:59N 43°34' E 010°18'0 0.0
2017-Nov-10 04:29N 43°34' E 010°18'0 0.0
2017-Nov-10 03:59N 43°34' E 010°18'0 0.0
2017-Nov-10 03:26N 43°34' E 010°18'0 0.0
2017-Nov-10 02:59N 43°34' E 010°18'0 0.0
2017-Nov-10 02:29N 43°34' E 010°18'0 0.0
2017-Nov-10 01:59N 43°34' E 010°18'0 0.0
2017-Nov-10 01:29N 43°34' E 010°18'0 0.0
2017-Nov-10 00:59N 43°34' E 010°18'0 0.0
2017-Nov-10 00:17N 43°34' E 010°18'0 0.0
2017-Nov-09 23:59N 43°34' E 010°18'0 0.0
2017-Nov-09 23:29N 43°34' E 010°18'0 0.0
2017-Nov-09 22:59N 43°34' E 010°18'0 0.0
2017-Nov-09 22:29N 43°34' E 010°18'0 0.0
2017-Nov-09 21:59N 43°34' E 010°18'0 0.0
2017-Nov-09 21:29N 43°34' E 010°18'0 0.0
2017-Nov-09 20:59N 43°34' E 010°18'0 0.0
2017-Nov-09 20:29N 43°34' E 010°18'0 0.0
2017-Nov-09 19:59N 43°34' E 010°18'0 0.2
2017-Nov-09 19:27N 43°33' E 010°18'2 5.1
2017-Nov-09 18:58N 43°31' E 010°16'613.5
2017-Nov-09 18:30N 43°27' E 010°10'918.0
2017-Nov-09 18:00N 43°20' E 010°02'917.6
2017-Nov-09 17:30N 43°16' E 009°51'918.1
2017-Nov-09 17:00N 43°14' E 009°39'918.1
2017-Nov-09 16:31N 43°11' E 009°28'  
Track history (hours):
 
Tides and Currents Weather Stations Pressure Air Temp Water Temp Dewpoint Dewpoint Depression Visibility Wind Speed Wind Dir Waves Ship Positions

Cscc Shanghai

Last reported at 2017-Nov-19 04:47 UTC. Time now 2017-Nov-21 10:23 UTC.
Position N 38°28' E 015°54'.

Length 176 m; draft 8.8 m.

Type: Cargo ship. MMSI: 311003600.

Date/timePositionNaut miles runAvg speedWind from/ knotsBaromVisibWave heightAir tempDewpointWater temp
2017-Nov-19 04:47N 38°28' E 015°54'1 5.0
2017-Nov-19 04:30N 38°27' E 015°53'2 2.6
2017-Nov-19 03:56N 38°26' E 015°51'3 7.4
2017-Nov-19 03:30N 38°24' E 015°49'816.1
2017-Nov-19 03:01N 38°17' E 015°43'816.0
2017-Nov-19 02:30N 38°11' E 015°37'4 7.4
2017-Nov-19 02:00N 38°07' E 015°36'5 9.5
2017-Nov-19 01:31N 38°02' E 015°36'815.0
2017-Nov-19 01:00N 37°55' E 015°39'917.0
2017-Nov-19 00:30N 37°51' E 015°48'917.2
2017-Nov-19 00:00N 37°49' E 015°58'62713.7
2017-Nov-17 02:07N 40°26' E 029°00'211.8
2017-Nov-17 01:58N 40°26' E 029°03'15 0.6
2017-Nov-15 23:22N 40°41' E 028°59'513.6
2017-Nov-15 22:59N 40°42' E 029°06'714.9
2017-Nov-15 22:30N 40°43' E 029°15'  
2017-Nov-13 02:01N 37°52' E 015°36'815.4
2017-Nov-13 01:30N 37°60' E 015°33'815.3
2017-Nov-13 01:00N 38°07' E 015°34'815.5
2017-Nov-13 00:30N 38°15' E 015°37'714.6
2017-Nov-13 00:00N 38°20' E 015°43'815.2
2017-Nov-12 23:30N 38°26' E 015°50'4 7.7
2017-Nov-12 23:00N 38°27' E 015°54'1 2.3
2017-Nov-12 22:30N 38°28' E 015°55'0 0.0
2017-Nov-12 21:57N 38°28' E 015°55'0 0.0
2017-Nov-12 21:24N 38°28' E 015°55'0 0.0
2017-Nov-12 20:57N 38°28' E 015°55'0 0.0
2017-Nov-12 20:27N 38°28' E 015°55'0 0.0
2017-Nov-12 19:51N 38°28' E 015°55'0 0.0
2017-Nov-12 19:30N 38°28' E 015°55'0 0.0
2017-Nov-12 18:57N 38°28' E 015°55'0 0.0
2017-Nov-12 18:30N 38°28' E 015°55'0 0.0
2017-Nov-12 17:57N 38°28' E 015°55'0 0.0
2017-Nov-12 17:30N 38°28' E 015°55'0 0.0
2017-Nov-12 17:00N 38°28' E 015°55'0 0.0
2017-Nov-12 16:30N 38°28' E 015°55'0 0.0
2017-Nov-12 16:00N 38°28' E 015°55'0 0.0
2017-Nov-12 15:16N 38°28' E 015°55'0 1.2
2017-Nov-12 14:59N 38°28' E 015°55'2 4.5
2017-Nov-12 14:31N 38°27' E 015°53'4 8.7
2017-Nov-12 14:01N 38°29' E 015°48'713.6
2017-Nov-12 13:30N 38°34' E 015°42'815.1
2017-Nov-12 13:00N 38°41' E 015°37'815.5
2017-Nov-12 12:30N 38°48' E 015°33'815.4
2017-Nov-12 12:00N 38°55' E 015°29'815.3
2017-Nov-12 11:30N 39°02' E 015°26'815.4
2017-Nov-12 10:59N 39°09' E 015°21'1815.4
2017-Nov-12 09:48N 39°26' E 015°12'2315.3
2017-Nov-12 08:18N 39°47' E 014°59'52 3.2
2017-Nov-11 16:11N 40°31' E 014°23'1516.8
2017-Nov-11 15:18N 40°32' E 014°04'517.5
2017-Nov-11 14:59N 40°34' E 013°57'18515.8
2017-Nov-11 03:16N 42°21' E 010°36'4313.9
2017-Nov-11 00:12N 42°56' E 010°04'315.7
2017-Nov-11 00:00N 42°59' E 010°05'815.5
2017-Nov-10 23:30N 43°07' E 010°06'815.1
2017-Nov-10 22:59N 43°15' E 010°08'715.0
2017-Nov-10 22:30N 43°22' E 010°10'815.3
2017-Nov-10 22:00N 43°29' E 010°12'510.7
2017-Nov-10 21:30N 43°33' E 010°17'2 4.1
2017-Nov-10 20:58N 43°35' E 010°19'0 0.0
2017-Nov-10 20:28N 43°35' E 010°19'0 0.0
2017-Nov-10 19:49N 43°35' E 010°19'0 0.0
2017-Nov-10 19:25N 43°35' E 010°19'0 0.0
2017-Nov-10 18:55N 43°35' E 010°19'0 0.0
2017-Nov-10 18:22N 43°35' E 010°19'0 0.0
2017-Nov-10 17:58N 43°35' E 010°19'0 0.0
2017-Nov-10 17:25N 43°35' E 010°19'0 0.0
2017-Nov-10 16:58N 43°35' E 010°19'0 0.0
2017-Nov-10 16:28N 43°35' E 010°19'0 0.0
2017-Nov-10 15:58N 43°35' E 010°19'0 0.0
2017-Nov-10 15:28N 43°35' E 010°19'0 0.0
2017-Nov-10 14:58N 43°35' E 010°19'0 0.0
2017-Nov-10 14:28N 43°35' E 010°19'0 0.0
2017-Nov-10 13:58N 43°35' E 010°19'0 0.0
2017-Nov-10 13:28N 43°35' E 010°19'0 0.0
2017-Nov-10 13:01N 43°35' E 010°19'1 1.8
2017-Nov-10 12:30N 43°34' E 010°18'0 0.7
2017-Nov-10 11:53N 43°34' E 010°18'0 0.0
2017-Nov-10 11:26N 43°34' E 010°18'0 0.0
2017-Nov-10 10:59N 43°34' E 010°18'0 0.0
2017-Nov-10 10:23N 43°34' E 010°18'0 0.0
2017-Nov-10 09:56N 43°34' E 010°18'0 0.0
2017-Nov-10 09:29N 43°34' E 010°18'0 0.0
2017-Nov-10 08:59N 43°34' E 010°18'0 0.0
2017-Nov-10 08:26N 43°34' E 010°18'0 0.0
2017-Nov-10 07:59N 43°34' E 010°18'0 0.0
2017-Nov-10 07:29N 43°34' E 010°18'0 0.0
2017-Nov-10 06:53N 43°34' E 010°18'0 0.0
2017-Nov-10 06:29N 43°34' E 010°18'0 0.0
2017-Nov-10 05:59N 43°34' E 010°18'0 0.0
2017-Nov-10 05:23N 43°34' E 010°18'0 0.0
2017-Nov-10 04:59N 43°34' E 010°18'0 0.0
2017-Nov-10 04:29N 43°34' E 010°18'0 0.0
2017-Nov-10 03:59N 43°34' E 010°18'0 0.0
2017-Nov-10 03:26N 43°34' E 010°18'0 0.0
2017-Nov-10 02:59N 43°34' E 010°18'0 0.0
2017-Nov-10 02:29N 43°34' E 010°18'0 0.0
2017-Nov-10 01:59N 43°34' E 010°18'0 0.0
2017-Nov-10 01:29N 43°34' E 010°18'0 0.0
2017-Nov-10 00:59N 43°34' E 010°18'0 0.0
2017-Nov-10 00:17N 43°34' E 010°18'0 0.0
2017-Nov-09 23:59N 43°34' E 010°18'0 0.0
2017-Nov-09 23:29N 43°34' E 010°18'0 0.0
2017-Nov-09 22:59N 43°34' E 010°18'0 0.0
2017-Nov-09 22:29N 43°34' E 010°18'0 0.0
2017-Nov-09 21:59N 43°34' E 010°18'0 0.0
2017-Nov-09 21:29N 43°34' E 010°18'0 0.0
2017-Nov-09 20:59N 43°34' E 010°18'0 0.0
2017-Nov-09 20:29N 43°34' E 010°18'0 0.0
2017-Nov-09 19:59N 43°34' E 010°18'0 0.2
2017-Nov-09 19:27N 43°33' E 010°18'2 5.1
2017-Nov-09 18:58N 43°31' E 010°16'613.5
2017-Nov-09 18:30N 43°27' E 010°10'918.0
2017-Nov-09 18:00N 43°20' E 010°02'917.6
2017-Nov-09 17:30N 43°16' E 009°51'918.1
2017-Nov-09 17:00N 43°14' E 009°39'918.1
2017-Nov-09 16:31N 43°11' E 009°28'  

Dump ship's entire track history